createdAt,value
2022-10-13T00:03:12.722Z,5.13
2022-10-13T00:08:15.977Z,4.95
2022-10-13T00:13:17.760Z,5.85
2022-10-13T00:18:19.289Z,6.35
2022-10-13T00:23:20.752Z,5.65
2022-10-13T00:28:22.222Z,5.43
2022-10-13T00:33:23.712Z,5.13
2022-10-13T00:38:25.160Z,6.10
2022-10-13T00:44:01.589Z,6.55
2022-10-13T00:49:21.122Z,6.63
2022-10-13T00:54:22.866Z,7.18
2022-10-13T00:59:27.264Z,7.32
2022-10-13T01:04:32.118Z,7.68
2022-10-13T01:09:39.324Z,6.30
2022-10-13T01:14:52.211Z,7.45
2022-10-13T01:20:20.328Z,7.40
2022-10-13T01:30:49.117Z,6.55
2022-10-13T01:41:15.597Z,6.43
2022-10-13T01:46:30.888Z,8.23
2022-10-13T02:01:55.781Z,12.50
2022-10-13T02:12:07.244Z,12.27
2022-10-13T02:17:08.712Z,12.15
2022-10-13T02:22:11.048Z,11.27
2022-10-13T02:27:12.869Z,12.85
2022-10-13T02:32:14.325Z,13.27
2022-10-13T02:37:15.789Z,12.45
2022-10-13T02:42:17.656Z,14.00
2022-10-13T02:47:19.387Z,12.93
2022-10-13T02:52:21.541Z,11.98
2022-10-13T03:02:25.791Z,12.25
2022-10-13T03:07:27.293Z,13.23
2022-10-13T03:12:28.751Z,13.00
2022-10-13T03:17:30.202Z,14.88
2022-10-13T03:22:32.523Z,13.88
2022-10-13T03:27:34.017Z,13.27
2022-10-13T03:32:35.477Z,12.20
2022-10-13T03:37:36.938Z,15.85
2022-10-13T03:42:38.540Z,14.05
2022-10-13T03:47:40.017Z,14.07
2022-10-13T03:52:41.462Z,12.95
2022-10-13T04:02:45.273Z,13.82
2022-10-13T04:07:46.729Z,14.25
2022-10-13T04:12:49.095Z,13.77
2022-10-13T04:17:50.549Z,13.70
2022-10-13T04:22:52.046Z,14.13
2022-10-13T04:27:53.524Z,16.17
2022-10-13T04:32:54.981Z,14.80
2022-10-13T04:37:58.997Z,16.63
2022-10-13T04:43:00.487Z,17.13
2022-10-13T04:48:01.980Z,15.55
2022-10-13T04:53:03.487Z,15.60
2022-10-13T04:58:04.958Z,15.50
2022-10-13T05:03:06.425Z,16.35
2022-10-13T05:08:07.884Z,15.57
2022-10-13T05:13:09.337Z,15.73
2022-10-13T05:18:10.801Z,15.90
2022-10-13T05:23:12.895Z,15.73
2022-10-13T05:28:14.482Z,17.65
2022-10-13T05:33:16.001Z,17.33
2022-10-13T05:38:17.445Z,15.05
2022-10-13T05:43:18.913Z,17.55
2022-10-13T05:48:20.368Z,15.82
2022-10-13T05:53:23.053Z,15.07
2022-10-13T05:58:24.520Z,15.23
2022-10-13T06:03:25.969Z,12.75
2022-10-13T06:08:27.432Z,14.50
2022-10-13T06:13:28.878Z,14.25
2022-10-13T06:18:30.374Z,13.90
2022-10-13T06:23:31.811Z,12.77
2022-10-13T06:28:33.309Z,11.40
2022-10-13T06:33:34.773Z,11.02
2022-10-13T06:38:36.287Z,8.70
2022-10-13T06:43:40.373Z,9.23
2022-10-13T06:48:42.240Z,11.45
2022-10-13T06:53:43.694Z,12.07
2022-10-13T06:58:45.403Z,10.80
2022-10-13T07:03:50.531Z,9.85
2022-10-13T07:08:52.068Z,8.60
2022-10-13T07:13:54.005Z,8.32
2022-10-13T07:18:55.489Z,9.15
2022-10-13T07:23:56.931Z,7.38
2022-10-13T07:28:58.539Z,6.70
2022-10-13T07:34:00.142Z,5.70
2022-10-13T07:39:03.116Z,5.40
2022-10-13T07:44:04.717Z,4.80
2022-10-13T07:49:06.179Z,4.13
2022-10-13T07:54:07.633Z,3.65
2022-10-13T07:59:09.178Z,3.22
2022-10-13T08:04:10.767Z,4.20
2022-10-13T08:09:12.470Z,6.03
2022-10-13T08:14:14.054Z,5.78
2022-10-13T08:19:20.188Z,5.63
2022-10-13T08:24:24.662Z,6.22
2022-10-13T08:29:26.241Z,7.75
2022-10-13T08:34:27.825Z,7.53
2022-10-13T08:39:29.301Z,7.93
2022-10-13T08:50:02.831Z,9.20
2022-10-13T08:55:05.759Z,8.43
2022-10-13T09:00:10.428Z,8.48
2022-10-13T09:05:22.244Z,8.70
2022-10-13T09:10:23.717Z,6.90
2022-10-13T09:15:25.200Z,7.55
2022-10-13T09:20:29.152Z,9.20
2022-10-13T09:25:31.575Z,9.80
2022-10-13T09:35:39.994Z,10.75
2022-10-13T09:45:43.127Z,10.45
2022-10-13T09:50:48.311Z,11.15
2022-10-13T09:55:49.880Z,11.60
2022-10-13T10:00:51.448Z,10.00
2022-10-13T10:05:57.267Z,9.73
2022-10-13T10:11:00.759Z,10.32
2022-10-13T10:16:12.432Z,8.95
2022-10-13T10:21:38.588Z,9.25
2022-10-13T10:26:48.816Z,9.85
2022-10-13T10:32:15.972Z,10.40
2022-10-13T10:37:44.331Z,11.43
2022-10-13T10:43:26.195Z,14.95
2022-10-13T10:48:33.254Z,14.32
2022-10-13T10:53:53.234Z,13.75
2022-10-13T10:59:06.497Z,14.27
2022-10-13T11:04:32.356Z,15.25
2022-10-13T11:09:42.738Z,15.65
2022-10-13T11:14:44.223Z,15.32
2022-10-13T11:19:47.799Z,15.98
2022-10-13T11:24:53.090Z,14.98
2022-10-13T11:29:58.627Z,15.90
2022-10-13T11:35:06.389Z,16.65
2022-10-13T11:40:25.130Z,17.35
2022-10-13T11:45:44.675Z,16.25
2022-10-13T11:51:04.548Z,16.67
2022-10-13T11:56:20.235Z,16.65
2022-10-13T12:01:21.697Z,16.05
2022-10-13T12:06:32.952Z,14.55
2022-10-13T12:11:36.738Z,16.35
2022-10-13T12:16:38.210Z,14.15
2022-10-13T12:21:51.378Z,15.32
2022-10-13T12:26:52.852Z,14.57
2022-10-13T12:31:54.381Z,15.68
2022-10-13T12:37:11.749Z,13.50
2022-10-13T12:42:13.278Z,14.48
2022-10-13T12:47:38.243Z,13.80
2022-10-13T12:52:39.692Z,12.13
2022-10-13T12:57:41.853Z,11.98
2022-10-13T13:02:43.331Z,12.05
2022-10-13T13:07:52.259Z,12.55
2022-10-13T13:12:54.747Z,12.65
2022-10-13T13:18:17.124Z,12.63
2022-10-13T13:23:19.354Z,12.38
2022-10-13T13:28:20.855Z,13.20
2022-10-13T13:33:22.368Z,13.68
2022-10-13T13:38:23.867Z,14.65
2022-10-13T13:43:25.334Z,13.55
2022-10-13T13:48:26.980Z,13.50
2022-10-13T13:53:28.425Z,12.65
2022-10-13T13:58:29.878Z,14.82
2022-10-13T14:03:31.332Z,14.02
2022-10-13T14:08:34.214Z,12.40
2022-10-13T14:13:35.677Z,12.77
2022-10-13T14:18:37.137Z,11.60
2022-10-13T14:23:38.620Z,12.90
2022-10-13T14:28:43.716Z,11.93
2022-10-13T14:33:45.227Z,11.68
2022-10-13T14:38:46.703Z,10.05
2022-10-13T14:43:48.154Z,10.82
2022-10-13T14:48:49.694Z,10.82
2022-10-13T14:53:51.156Z,11.25
2022-10-13T14:58:54.143Z,9.65
2022-10-13T15:03:55.731Z,10.05
2022-10-13T15:08:57.342Z,5.88
2022-10-13T15:13:58.894Z,5.65
2022-10-13T15:19:00.548Z,6.15
2022-10-13T15:24:02.015Z,4.75
2022-10-13T15:29:03.499Z,7.20
2022-10-13T15:34:04.955Z,5.75
2022-10-13T15:39:06.397Z,5.20
2022-10-13T15:44:07.850Z,6.10
2022-10-13T15:49:09.311Z,4.25
2022-10-13T15:54:10.786Z,4.25
2022-10-13T15:59:12.233Z,4.70
2022-10-13T16:04:13.718Z,1.50
2022-10-13T16:09:15.167Z,0.77
2022-10-13T16:14:16.655Z,0.90
2022-10-13T16:19:18.100Z,0.90
2022-10-13T16:24:19.561Z,1.05
2022-10-13T16:29:21.032Z,1.30
2022-10-13T16:34:22.845Z,1.05
2022-10-13T16:39:24.749Z,1.92
2022-10-13T16:44:26.205Z,1.35
2022-10-13T16:49:27.886Z,1.10
2022-10-13T16:54:29.825Z,1.05
2022-10-13T16:59:31.293Z,1.60
2022-10-13T17:04:32.753Z,1.48
2022-10-13T17:09:34.498Z,1.55
2022-10-13T17:14:35.965Z,1.00
2022-10-13T17:19:37.468Z,0.90
2022-10-13T17:24:39.576Z,1.20
2022-10-13T17:29:41.034Z,1.17
2022-10-13T17:34:42.490Z,1.30
2022-10-13T17:39:44.059Z,2.03
2022-10-13T17:44:45.535Z,1.80
2022-10-13T17:49:47.101Z,1.60
2022-10-13T17:54:49.080Z,1.52
2022-10-13T17:59:50.593Z,1.52
2022-10-13T18:04:52.044Z,1.63
2022-10-13T18:09:53.501Z,1.00
2022-10-13T18:14:55.219Z,1.40
2022-10-13T18:19:57.732Z,10.55
2022-10-13T18:24:59.218Z,3.80
2022-10-13T18:30:00.672Z,3.17
2022-10-13T18:35:02.117Z,4.13
2022-10-13T18:40:04.909Z,27.67
2022-10-13T18:45:06.785Z,2.58
2022-10-13T18:50:08.564Z,1.40
2022-10-13T18:55:10.008Z,1.60
2022-10-13T19:00:11.936Z,1.25
2022-10-13T19:05:13.829Z,2.08
2022-10-13T19:10:15.350Z,1.90
2022-10-13T19:15:16.828Z,1.20
2022-10-13T19:20:18.298Z,1.35
2022-10-13T19:25:19.750Z,1.25
2022-10-13T19:30:21.209Z,1.33
2022-10-13T19:35:22.663Z,1.50
2022-10-13T19:40:24.121Z,1.38
2022-10-13T19:45:25.559Z,1.10
2022-10-13T19:50:27.016Z,1.38
2022-10-13T19:55:28.465Z,1.10
2022-10-13T20:00:29.976Z,1.27
2022-10-13T20:05:31.561Z,1.20
2022-10-13T20:10:37.735Z,1.05
2022-10-13T20:15:40.377Z,1.23
2022-10-13T20:20:41.866Z,1.30
2022-10-13T20:25:43.420Z,1.40
2022-10-13T20:30:44.879Z,0.98
2022-10-13T20:35:46.327Z,1.20
2022-10-13T20:40:47.772Z,2.15
2022-10-13T20:45:49.232Z,1.80
2022-10-13T20:50:50.692Z,0.95
2022-10-13T20:55:58.425Z,1.00
2022-10-13T21:01:00.009Z,1.50
2022-10-13T21:06:02.393Z,1.08
2022-10-13T21:16:13.380Z,1.17
2022-10-13T21:21:15.891Z,1.17
2022-10-13T21:26:21.294Z,1.23
2022-10-13T21:31:23.821Z,1.50
2022-10-13T21:36:26.825Z,1.40
2022-10-13T21:41:28.336Z,1.17
2022-10-13T21:46:31.116Z,1.20
2022-10-13T21:51:34.722Z,1.92
2022-10-13T21:56:36.509Z,1.23
2022-10-13T22:01:37.964Z,1.13
2022-10-13T22:06:39.461Z,1.13
2022-10-13T22:11:41.097Z,1.30
2022-10-13T22:16:44.384Z,1.13
2022-10-13T22:21:47.718Z,1.25
2022-10-13T22:26:49.622Z,1.20
2022-10-13T22:31:51.530Z,1.60
2022-10-13T22:36:54.588Z,1.15
2022-10-13T22:41:56.057Z,1.50
2022-10-13T22:46:57.541Z,1.38
2022-10-13T22:51:59.053Z,1.50
2022-10-13T22:57:00.509Z,1.40
2022-10-13T23:02:01.967Z,1.30
2022-10-13T23:07:03.450Z,1.30
2022-10-13T23:12:04.993Z,2.08
2022-10-13T23:17:06.440Z,1.10
2022-10-13T23:22:07.890Z,1.42
2022-10-13T23:27:09.750Z,1.20
2022-10-13T23:32:11.194Z,1.08
2022-10-13T23:37:12.656Z,1.10
2022-10-13T23:42:14.476Z,1.30
2022-10-13T23:47:15.967Z,1.85
2022-10-13T23:52:19.161Z,1.08
2022-10-13T23:57:20.882Z,1.67
